createdAt,value
2022-11-01T00:03:14.447Z,75.02
2022-11-01T00:08:17.520Z,75.43
2022-11-01T00:13:21.708Z,75.32
2022-11-01T00:18:24.689Z,75.47
2022-11-01T00:23:27.475Z,75.38
2022-11-01T00:28:32.532Z,75.74
2022-11-01T00:33:35.391Z,75.78
2022-11-01T00:38:38.220Z,76.17
2022-11-01T00:43:42.412Z,75.62
2022-11-01T00:48:45.427Z,75.71
2022-11-01T00:53:48.307Z,75.63
2022-11-01T00:58:52.532Z,75.78
2022-11-01T01:03:55.362Z,75.85
2022-11-01T01:08:59.879Z,75.92
2022-11-01T01:14:04.096Z,75.67
2022-11-01T01:19:09.726Z,75.90
2022-11-01T01:24:12.520Z,75.84
2022-11-01T01:29:17.011Z,75.27
2022-11-01T01:34:20.299Z,75.17
2022-11-01T01:39:23.271Z,75.01
2022-11-01T01:44:50.496Z,75.59
2022-11-01T01:50:00.417Z,75.28
2022-11-01T01:55:07.748Z,75.14
2022-11-01T02:00:12.058Z,75.16
2022-11-01T02:05:23.199Z,74.95
2022-11-01T02:10:26.008Z,74.76
2022-11-01T02:15:34.807Z,74.83
2022-11-01T02:21:08.475Z,75.02
2022-11-01T02:26:32.735Z,74.86
2022-11-01T02:31:50.472Z,74.67
2022-11-01T02:37:01.364Z,74.59
2022-11-01T02:42:11.616Z,73.99
2022-11-01T02:47:15.916Z,74.13
2022-11-01T02:52:22.444Z,74.05
2022-11-01T02:57:31.796Z,73.83
2022-11-01T03:02:41.393Z,73.93
2022-11-01T03:07:48.427Z,74.06
2022-11-01T03:13:00.379Z,74.52
2022-11-01T03:18:11.710Z,74.53
2022-11-01T03:23:17.892Z,74.72
2022-11-01T03:28:24.090Z,74.60
2022-11-01T03:33:30.046Z,75.17
2022-11-01T03:38:37.491Z,74.90
2022-11-01T03:43:42.403Z,75.09
2022-11-01T03:48:46.676Z,75.15
2022-11-01T03:53:49.480Z,75.37
2022-11-01T03:58:52.291Z,75.30
2022-11-01T04:03:56.422Z,75.19
2022-11-01T04:08:59.215Z,74.97
2022-11-01T04:14:15.948Z,74.57
2022-11-01T04:19:37.594Z,73.92
2022-11-01T04:24:40.437Z,73.36
2022-11-01T04:29:43.243Z,71.59
2022-11-01T04:34:47.448Z,70.37
2022-11-01T04:39:50.291Z,69.37
2022-11-01T04:44:53.095Z,69.11
2022-11-01T04:49:57.268Z,69.05
2022-11-01T04:55:00.245Z,68.97
2022-11-01T05:00:03.109Z,69.36
2022-11-01T05:05:09.675Z,69.56
2022-11-01T05:10:13.000Z,69.76
2022-11-01T05:15:15.811Z,69.40
2022-11-01T05:20:20.180Z,69.11
2022-11-01T05:25:23.014Z,68.69
2022-11-01T05:30:25.783Z,69.08
2022-11-01T05:35:30.836Z,69.48
2022-11-01T05:40:34.259Z,69.05
2022-11-01T05:45:37.259Z,69.63
2022-11-01T05:50:41.408Z,69.71
2022-11-01T05:55:44.715Z,69.86
2022-11-01T06:00:47.479Z,69.66
2022-11-01T06:05:51.648Z,69.51
2022-11-01T06:10:54.907Z,69.84
2022-11-01T06:15:59.653Z,69.99
2022-11-01T06:21:03.848Z,69.74
2022-11-01T06:26:07.272Z,70.17
2022-11-01T06:31:10.183Z,69.71
2022-11-01T06:36:14.527Z,69.81
2022-11-01T06:41:17.640Z,69.71
2022-11-01T06:46:20.386Z,69.49
2022-11-01T06:51:24.531Z,69.15
2022-11-01T06:56:27.380Z,68.50
2022-11-01T07:01:30.333Z,68.88
2022-11-01T07:06:34.558Z,69.39
2022-11-01T07:11:38.426Z,69.02
2022-11-01T07:16:41.328Z,69.51
2022-11-01T07:21:45.489Z,69.35
2022-11-01T07:26:48.283Z,69.38
2022-11-01T07:31:51.048Z,69.08
2022-11-01T07:36:55.257Z,69.18
2022-11-01T07:41:59.399Z,69.76
2022-11-01T07:47:02.158Z,69.69
2022-11-01T07:52:06.331Z,69.20
2022-11-01T07:57:09.404Z,68.26
2022-11-01T08:02:12.345Z,67.86
2022-11-01T08:07:17.878Z,67.54
2022-11-01T08:12:20.628Z,67.00
2022-11-01T08:17:23.774Z,68.06
2022-11-01T08:22:27.971Z,67.89
2022-11-01T08:27:32.864Z,68.12
2022-11-01T08:32:37.279Z,68.71
2022-11-01T08:37:49.151Z,68.74
2022-11-01T08:42:52.638Z,69.34
2022-11-01T08:48:00.158Z,67.98
2022-11-01T08:53:07.337Z,65.74
2022-11-01T08:58:10.574Z,63.98
2022-11-01T09:03:13.458Z,63.12
2022-11-01T09:08:17.584Z,60.65
2022-11-01T09:13:20.438Z,59.48
2022-11-01T09:18:23.251Z,57.36
2022-11-01T09:23:27.655Z,52.51
2022-11-01T09:28:33.806Z,51.79
2022-11-01T09:33:38.042Z,48.74
2022-11-01T09:38:42.335Z,49.14
2022-11-01T09:43:47.161Z,48.72
2022-11-01T09:48:50.689Z,47.53
2022-11-01T09:53:57.508Z,47.12
2022-11-01T09:59:09.420Z,46.53
2022-11-01T10:04:41.538Z,47.23
2022-11-01T10:09:50.444Z,46.16
2022-11-01T10:15:10.876Z,45.59
2022-11-01T10:20:15.623Z,45.71
2022-11-01T10:25:23.456Z,46.69
2022-11-01T10:30:29.845Z,45.74
2022-11-01T10:35:36.345Z,43.75
2022-11-01T10:40:46.949Z,43.05
2022-11-01T10:45:55.288Z,42.91
2022-11-01T10:51:01.125Z,43.39
2022-11-01T10:56:10.067Z,41.36
2022-11-01T11:01:19.874Z,41.97
2022-11-01T11:06:22.820Z,40.92
2022-11-01T11:11:36.577Z,40.94
2022-11-01T11:16:44.538Z,40.94
2022-11-01T11:21:49.700Z,42.84
2022-11-01T11:26:56.671Z,41.92
2022-11-01T11:32:01.245Z,42.01
2022-11-01T11:37:06.433Z,41.28
2022-11-01T11:42:18.864Z,40.30
2022-11-01T11:47:22.546Z,39.59
2022-11-01T11:52:37.733Z,40.32
2022-11-01T11:57:52.485Z,41.50
2022-11-01T12:02:55.498Z,40.05
2022-11-01T12:07:59.094Z,40.52
2022-11-01T12:13:05.899Z,41.77
2022-11-01T12:18:15.862Z,42.12
2022-11-01T12:23:33.364Z,42.18
2022-11-01T12:28:41.360Z,42.73
2022-11-01T12:33:49.385Z,41.93
2022-11-01T12:38:58.214Z,41.16
2022-11-01T12:58:01.441Z,41.80
2022-11-01T13:03:26.811Z,41.48
2022-11-01T13:08:37.184Z,41.41
2022-11-01T13:13:45.559Z,42.53
2022-11-01T13:18:56.480Z,42.27
2022-11-01T13:24:08.438Z,42.52
2022-11-01T13:34:41.155Z,40.51
2022-11-01T13:39:59.402Z,40.57
2022-11-01T13:45:34.228Z,40.80
2022-11-01T13:50:51.232Z,42.85
2022-11-01T13:55:58.777Z,42.29
2022-11-01T14:01:28.857Z,43.20
2022-11-01T14:06:37.317Z,43.49
2022-11-01T14:11:48.261Z,43.28
2022-11-01T14:16:52.323Z,44.05
2022-11-01T14:21:55.030Z,44.12
2022-11-01T14:27:04.410Z,43.34
2022-11-01T14:32:11.727Z,43.54
2022-11-01T14:37:20.120Z,43.23
2022-11-01T14:42:27.468Z,42.39
2022-11-01T14:47:38.693Z,42.59
2022-11-01T14:52:46.163Z,44.07
2022-11-01T14:57:49.466Z,44.65
2022-11-01T15:02:53.785Z,43.81
2022-11-01T15:07:59.105Z,44.25
2022-11-01T15:13:03.138Z,44.39
2022-11-01T15:18:15.455Z,44.30
2022-11-01T15:23:21.176Z,45.01
2022-11-01T15:28:29.338Z,45.31
2022-11-01T15:33:34.775Z,45.45
2022-11-01T15:38:50.430Z,45.92
2022-11-01T15:43:54.186Z,46.75
2022-11-01T15:49:01.793Z,46.59
2022-11-01T15:54:08.037Z,47.16
2022-11-01T15:59:21.959Z,47.96
2022-11-01T16:04:27.948Z,48.37
2022-11-01T16:09:37.405Z,49.19
2022-11-01T16:14:40.663Z,49.12
2022-11-01T16:19:48.341Z,49.65
2022-11-01T16:24:51.191Z,50.03
2022-11-01T16:29:54.028Z,50.53
2022-11-01T16:35:00.132Z,50.18
2022-11-01T16:40:24.765Z,50.54
2022-11-01T16:45:27.573Z,50.67
2022-11-01T16:50:32.068Z,50.81
2022-11-01T16:55:37.248Z,50.35
2022-11-01T17:00:40.262Z,50.82
2022-11-01T17:05:52.516Z,50.80
2022-11-01T17:10:58.135Z,50.58
2022-11-01T17:16:00.940Z,50.26
2022-11-01T17:26:36.011Z,50.08
2022-11-01T17:31:38.688Z,49.92
2022-11-01T17:36:45.060Z,49.97
2022-11-01T17:41:49.133Z,49.95
2022-11-01T17:46:51.856Z,49.72
2022-11-01T17:51:55.263Z,49.30
2022-11-01T17:56:59.570Z,49.56
2022-11-01T18:02:02.409Z,49.96
2022-11-01T18:07:05.336Z,49.22
2022-11-01T18:12:15.713Z,49.32
2022-11-01T18:17:33.007Z,49.85
2022-11-01T18:22:43.770Z,49.44
2022-11-01T18:27:48.195Z,49.14
2022-11-01T18:32:57.614Z,49.80
2022-11-01T18:38:26.424Z,49.77
2022-11-01T18:43:33.395Z,49.56
2022-11-01T18:48:36.119Z,49.75
2022-11-01T18:53:39.263Z,49.97
2022-11-01T18:58:43.390Z,50.26
2022-11-01T19:03:46.722Z,50.49
2022-11-01T19:08:53.624Z,51.22
2022-11-01T19:13:59.299Z,51.58
2022-11-01T19:19:02.075Z,52.05
2022-11-01T19:24:27.478Z,52.01
2022-11-01T19:29:34.888Z,52.52
2022-11-01T19:34:42.079Z,52.43
2022-11-01T19:39:44.832Z,52.29
2022-11-01T19:44:49.004Z,53.00
2022-11-01T19:49:51.776Z,53.54
2022-11-01T19:54:54.569Z,53.88
2022-11-01T20:00:18.906Z,54.42
2022-11-01T20:05:27.367Z,54.82
2022-11-01T20:10:30.759Z,55.24
2022-11-01T20:15:34.891Z,55.53
2022-11-01T20:20:37.754Z,56.38
2022-11-01T20:25:41.203Z,56.43
2022-11-01T20:30:45.284Z,57.12
2022-11-01T20:35:48.906Z,57.06
2022-11-01T20:40:51.742Z,57.38
2022-11-01T20:45:55.826Z,57.19
2022-11-01T20:50:59.947Z,57.99
2022-11-01T20:56:02.700Z,58.24
2022-11-01T21:01:11.151Z,58.02
2022-11-01T21:06:15.134Z,57.82
2022-11-01T21:11:43.978Z,58.19
2022-11-01T21:16:49.092Z,58.43
2022-11-01T21:21:53.710Z,58.58
2022-11-01T21:27:08.448Z,58.75
2022-11-01T21:32:24.738Z,58.87
2022-11-01T21:37:30.674Z,59.14
2022-11-01T21:42:35.459Z,59.18
2022-11-01T21:47:45.467Z,59.67
2022-11-01T21:52:48.511Z,59.44
2022-11-01T21:57:51.057Z,59.31
2022-11-01T22:02:55.164Z,59.89
2022-11-01T22:07:57.962Z,59.85
2022-11-01T22:13:06.461Z,60.16
2022-11-01T22:18:11.007Z,59.94
2022-11-01T22:23:13.764Z,59.86
2022-11-01T22:28:16.353Z,60.53
2022-11-01T22:33:21.322Z,60.04
2022-11-01T22:38:24.515Z,60.21
2022-11-01T22:43:27.242Z,59.92
2022-11-01T22:48:31.680Z,60.20
2022-11-01T22:53:34.471Z,60.53
2022-11-01T22:58:38.318Z,60.67
2022-11-01T23:03:42.538Z,60.96
2022-11-01T23:08:45.354Z,60.89
2022-11-01T23:14:05.560Z,61.08
2022-11-01T23:19:13.161Z,60.31
2022-11-01T23:24:15.967Z,60.02
2022-11-01T23:29:19.286Z,59.87
2022-11-01T23:34:23.356Z,59.90
2022-11-01T23:39:32.965Z,59.88
2022-11-01T23:44:38.187Z,60.04
2022-11-01T23:49:43.707Z,59.80
2022-11-01T23:54:46.628Z,59.77
2022-11-01T23:59:51.891Z,59.46
